createdAt,value
2019-01-06T00:00:05.588Z,102231.00
2019-01-06T00:02:48.653Z,102222.00
2019-01-06T00:05:25.797Z,102228.00
2019-01-06T00:08:13.028Z,102229.00
2019-01-06T00:11:02.983Z,102225.00
2019-01-06T00:13:47.507Z,102224.00
2019-01-06T00:16:35.088Z,102220.00
2019-01-06T00:19:07.348Z,102232.00
2019-01-06T00:21:41.676Z,102227.00
2019-01-06T00:24:27.831Z,102229.00
2019-01-06T00:26:59.147Z,102227.00
2019-01-06T00:29:46.998Z,102221.00
2019-01-06T00:32:19.779Z,102225.00
2019-01-06T00:35:01.629Z,102218.00
2019-01-06T00:37:49.148Z,102215.00
2019-01-06T00:40:34.052Z,102207.00
2019-01-06T00:43:08.133Z,102207.00
2019-01-06T00:45:55.824Z,102203.00
2019-01-06T00:48:34.527Z,102207.00
2019-01-06T00:51:15.053Z,102205.00
2019-01-06T00:53:46.293Z,102214.00
2019-01-06T00:56:33.948Z,102205.00
2019-01-06T00:59:05.306Z,102204.00
2019-01-06T01:01:36.629Z,102206.00
2019-01-06T01:04:14.014Z,102202.00
2019-01-06T01:07:02.805Z,102199.00
2019-01-06T01:09:44.379Z,102202.00
2019-01-06T01:12:23.075Z,102203.00
2019-01-06T01:15:03.117Z,102198.00
2019-01-06T01:17:50.221Z,102205.00
2019-01-06T01:20:21.600Z,102202.00
2019-01-06T01:22:56.039Z,102205.00
2019-01-06T01:25:46.150Z,102205.00
2019-01-06T01:28:33.474Z,102204.00
2019-01-06T01:31:19.773Z,102191.00
2019-01-06T01:33:51.106Z,102203.00
2019-01-06T01:36:28.202Z,102192.00
2019-01-06T01:39:02.316Z,102196.00
2019-01-06T01:41:36.386Z,102204.00
2019-01-06T01:44:10.804Z,102201.00
2019-01-06T01:46:54.182Z,102192.00
2019-01-06T01:49:42.188Z,102183.00
2019-01-06T01:52:20.692Z,102195.00
2019-01-06T01:54:54.463Z,102192.00
2019-01-06T01:57:25.801Z,102190.00
2019-01-06T02:03:16.763Z,102205.00
2019-01-06T02:06:09.659Z,102193.00
2019-01-06T02:08:57.095Z,102191.00
2019-01-06T02:11:33.129Z,102191.00
2019-01-06T02:14:04.489Z,102196.00
2019-01-06T02:16:50.784Z,102191.00
2019-01-06T02:19:22.134Z,102191.00
2019-01-06T02:21:53.459Z,102200.00
2019-01-06T02:24:25.074Z,102187.00
2019-01-06T02:26:56.350Z,102207.00
2019-01-06T02:29:31.567Z,102202.00
2019-01-06T02:32:05.650Z,102207.00
2019-01-06T02:34:52.212Z,102200.00
2019-01-06T02:37:23.574Z,102191.00
2019-01-06T02:40:03.032Z,102191.00
2019-01-06T02:42:50.656Z,102194.00
2019-01-06T02:45:27.505Z,102195.00
2019-01-06T02:48:11.054Z,102194.00
2019-01-06T02:50:46.466Z,102189.00
2019-01-06T02:53:29.658Z,102182.00
2019-01-06T02:56:17.369Z,102191.00
2019-01-06T02:58:49.314Z,102195.00
2019-01-06T03:01:23.604Z,102191.00
2019-01-06T03:03:54.961Z,102189.00
2019-01-06T03:06:37.932Z,102195.00
2019-01-06T03:09:15.817Z,102196.00
2019-01-06T03:11:53.006Z,102197.00
2019-01-06T03:14:40.269Z,102194.00
2019-01-06T03:17:20.842Z,102198.00
2019-01-06T03:19:58.099Z,102201.00
2019-01-06T03:22:41.095Z,102205.00
2019-01-06T03:25:19.233Z,102202.00
2019-01-06T03:27:50.533Z,102208.00
2019-01-06T03:30:27.901Z,102203.00
2019-01-06T03:33:17.213Z,102195.00
2019-01-06T03:35:54.520Z,102190.00
2019-01-06T03:38:44.080Z,102197.00
2019-01-06T03:41:31.574Z,102204.00
2019-01-06T03:44:18.967Z,102197.00
2019-01-06T03:47:06.513Z,102194.00
2019-01-06T03:49:49.612Z,102196.00
2019-01-06T03:52:32.801Z,102194.00
2019-01-06T03:55:09.631Z,102194.00
2019-01-06T03:57:46.466Z,102194.00
2019-01-06T04:00:23.338Z,102191.00
2019-01-06T04:03:09.704Z,102188.00
2019-01-06T04:05:46.731Z,102183.00
2019-01-06T04:08:18.071Z,102178.00
2019-01-06T04:11:01.317Z,102173.00
2019-01-06T04:13:33.425Z,102169.00
2019-01-06T04:16:20.870Z,102170.00
2019-01-06T04:19:07.539Z,102172.00
2019-01-06T04:21:54.987Z,102172.00
2019-01-06T04:24:42.507Z,102170.00
2019-01-06T04:27:26.019Z,102171.00
2019-01-06T04:30:13.545Z,102178.00
2019-01-06T04:32:44.867Z,102176.00
2019-01-06T04:35:20.154Z,102174.00
2019-01-06T04:37:57.452Z,102167.00
2019-01-06T04:40:31.257Z,102163.00
2019-01-06T04:43:05.384Z,102163.00
2019-01-06T04:45:54.993Z,102165.00
2019-01-06T04:48:29.205Z,102166.00
2019-01-06T04:53:55.983Z,102158.00
2019-01-06T04:56:43.316Z,102154.00
2019-01-06T04:59:30.568Z,102151.00
2019-01-06T05:02:23.905Z,102156.00
2019-01-06T05:05:11.211Z,102155.00
2019-01-06T05:07:57.696Z,102142.00
2019-01-06T05:10:37.823Z,102157.00
2019-01-06T05:13:19.244Z,102154.00
2019-01-06T05:16:06.525Z,102138.00
2019-01-06T05:18:40.616Z,102141.00
2019-01-06T05:21:11.935Z,102141.00
2019-01-06T05:23:59.365Z,102131.00
2019-01-06T05:26:42.481Z,102144.00
2019-01-06T05:29:29.761Z,102132.00
2019-01-06T05:32:16.085Z,102128.00
2019-01-06T05:34:49.993Z,102129.00
2019-01-06T05:37:24.023Z,102122.00
2019-01-06T05:40:07.112Z,102122.00
2019-01-06T05:42:54.587Z,102118.00
2019-01-06T05:45:31.570Z,102126.00
2019-01-06T05:48:08.836Z,102139.00
2019-01-06T05:50:52.223Z,102117.00
2019-01-06T05:53:39.700Z,102125.00
2019-01-06T05:56:29.591Z,102129.00
2019-01-06T05:59:06.874Z,102131.00
2019-01-06T06:01:50.415Z,102122.00
2019-01-06T06:04:33.525Z,102129.00
2019-01-06T06:07:13.712Z,102138.00
2019-01-06T06:09:47.607Z,102121.00
2019-01-06T06:12:27.777Z,102130.00
2019-01-06T06:15:04.828Z,102127.00
2019-01-06T06:17:36.125Z,102140.00
2019-01-06T06:20:08.475Z,102056.00
2019-01-06T06:22:55.665Z,102128.00
2019-01-06T06:25:32.980Z,102120.00
2019-01-06T06:28:20.687Z,102127.00
2019-01-06T06:30:54.697Z,102127.00
2019-01-06T06:33:25.971Z,102116.00
2019-01-06T06:35:59.987Z,102116.00
2019-01-06T06:38:31.300Z,102129.00
2019-01-06T06:41:02.647Z,102119.00
2019-01-06T06:43:50.282Z,102118.00
2019-01-06T06:46:41.236Z,102114.00
2019-01-06T06:49:27.548Z,102108.00
2019-01-06T06:52:01.508Z,102109.00
2019-01-06T06:54:32.986Z,102108.00
2019-01-06T07:01:24.607Z,102107.00
2019-01-06T07:04:02.070Z,102122.00
2019-01-06T07:06:33.390Z,102117.00
2019-01-06T07:09:16.705Z,102117.00
2019-01-06T07:11:56.918Z,102128.00
2019-01-06T07:14:46.129Z,102122.00
2019-01-06T07:18:05.904Z,102132.00
2019-01-06T07:20:46.095Z,102119.00
2019-01-06T07:23:29.568Z,102125.00
2019-01-06T07:26:00.895Z,102126.00
2019-01-06T07:28:48.183Z,102141.00
2019-01-06T07:31:35.687Z,102140.00
2019-01-06T07:34:18.698Z,102147.00
2019-01-06T07:37:06.319Z,102147.00
2019-01-06T07:39:40.334Z,102156.00
2019-01-06T07:42:30.460Z,102160.00
2019-01-06T07:45:03.048Z,102169.00
2019-01-06T07:47:40.146Z,102166.00
2019-01-06T07:50:23.259Z,102179.00
2019-01-06T07:53:13.046Z,102178.00
2019-01-06T07:55:48.713Z,102175.00
2019-01-06T07:58:30.489Z,102178.00
2019-01-06T08:01:07.629Z,102180.00
2019-01-06T08:03:41.750Z,102179.00
2019-01-06T08:06:25.066Z,102185.00
2019-01-06T08:09:11.449Z,102187.00
2019-01-06T08:11:42.770Z,102184.00
2019-01-06T08:14:18.415Z,102178.00
2019-01-06T08:16:53.459Z,102183.00
2019-01-06T08:19:33.585Z,102191.00
2019-01-06T08:22:04.843Z,102193.00
2019-01-06T08:24:36.113Z,102196.00
2019-01-06T08:27:23.538Z,102192.00
2019-01-06T08:30:09.707Z,102191.00
2019-01-06T08:32:56.045Z,102198.00
2019-01-06T08:35:48.064Z,102191.00
2019-01-06T08:38:19.330Z,102188.00
2019-01-06T08:41:02.539Z,102194.00
2019-01-06T08:43:33.818Z,102200.00
2019-01-06T08:46:23.031Z,102204.00
2019-01-06T08:49:03.201Z,102188.00
2019-01-06T08:51:50.814Z,102196.00
2019-01-06T08:54:40.327Z,102200.00
2019-01-06T08:57:14.277Z,102202.00
2019-01-06T08:59:54.399Z,102209.00
2019-01-06T09:02:31.607Z,102203.00
2019-01-06T09:05:06.642Z,102208.00
2019-01-06T09:07:52.812Z,102222.00
2019-01-06T09:10:26.851Z,102216.00
2019-01-06T09:13:06.918Z,102215.00
2019-01-06T09:15:53.434Z,102213.00
2019-01-06T09:18:33.320Z,102209.00
2019-01-06T09:21:16.500Z,102212.00
2019-01-06T09:23:50.619Z,102211.00
2019-01-06T09:26:33.948Z,102206.00
2019-01-06T09:29:17.000Z,102216.00
2019-01-06T09:31:50.952Z,102208.00
2019-01-06T09:34:26.429Z,102043.00
2019-01-06T09:37:03.679Z,102216.00
2019-01-06T09:39:43.857Z,102217.00
2019-01-06T09:42:33.925Z,102229.00
2019-01-06T09:45:15.190Z,102217.00
2019-01-06T09:47:46.530Z,102222.00
2019-01-06T09:50:20.270Z,102225.00
2019-01-06T09:53:10.862Z,102231.00
2019-01-06T09:55:53.815Z,102241.00
2019-01-06T09:58:41.312Z,102232.00
2019-01-06T10:01:29.771Z,102235.00
2019-01-06T10:04:01.118Z,102236.00
2019-01-06T10:06:40.135Z,102237.00
2019-01-06T10:09:27.728Z,102241.00
2019-01-06T10:12:15.365Z,102243.00
2019-01-06T10:14:58.856Z,102250.00
2019-01-06T10:17:42.040Z,102240.00
2019-01-06T10:20:19.221Z,102238.00
2019-01-06T10:22:53.309Z,102241.00
2019-01-06T10:25:30.349Z,102241.00
2019-01-06T10:28:22.083Z,102237.00
2019-01-06T10:30:55.842Z,102240.00
2019-01-06T10:33:39.531Z,102230.00
2019-01-06T10:36:19.824Z,102236.00
2019-01-06T10:38:57.028Z,102236.00
2019-01-06T10:41:41.373Z,102230.00
2019-01-06T10:44:21.456Z,102238.00
2019-01-06T10:46:57.416Z,102245.00
2019-01-06T10:49:31.539Z,102235.00
2019-01-06T10:52:08.757Z,102237.00
2019-01-06T10:54:40.050Z,102230.00
2019-01-06T10:57:27.390Z,102231.00
2019-01-06T11:00:14.850Z,102232.00
2019-01-06T11:03:04.109Z,102233.00
2019-01-06T11:05:50.452Z,102233.00
2019-01-06T11:08:21.735Z,102231.00
2019-01-06T11:11:04.348Z,102230.00
2019-01-06T11:13:51.663Z,102221.00
2019-01-06T11:16:31.365Z,102229.00
2019-01-06T11:19:11.483Z,102226.00
2019-01-06T11:21:48.754Z,102235.00
2019-01-06T11:24:38.033Z,102236.00
2019-01-06T11:27:25.196Z,102238.00
2019-01-06T11:29:56.602Z,102232.00
2019-01-06T11:32:36.909Z,102248.00
2019-01-06T11:35:08.546Z,102233.00
2019-01-06T11:37:54.823Z,102236.00
2019-01-06T11:40:42.209Z,102237.00
2019-01-06T11:43:31.369Z,102225.00
2019-01-06T11:46:02.989Z,102221.00
2019-01-06T11:48:40.095Z,102218.00
2019-01-06T11:51:26.449Z,102229.00
2019-01-06T11:54:00.427Z,102220.00
2019-01-06T11:56:48.197Z,102228.00
2019-01-06T11:59:31.353Z,102226.00
2019-01-06T12:02:19.036Z,102222.00
2019-01-06T12:04:55.869Z,102229.00
2019-01-06T12:07:36.002Z,102214.00
2019-01-06T12:10:12.418Z,102202.00
2019-01-06T12:12:46.465Z,102204.00
2019-01-06T12:15:17.595Z,102204.00
2019-01-06T12:18:04.136Z,102191.00
2019-01-06T12:20:47.564Z,102199.00
2019-01-06T12:23:27.535Z,102191.00
2019-01-06T12:26:14.943Z,102200.00
2019-01-06T12:29:03.359Z,102187.00
2019-01-06T12:31:37.883Z,102188.00
2019-01-06T12:34:12.088Z,102183.00
2019-01-06T12:36:56.607Z,102167.00
2019-01-06T12:39:29.138Z,102158.00
2019-01-06T12:42:00.331Z,102161.00
2019-01-06T12:44:34.647Z,102160.00
2019-01-06T12:47:05.964Z,102166.00
2019-01-06T12:49:52.210Z,102174.00
2019-01-06T12:52:24.247Z,102174.00
2019-01-06T12:54:56.386Z,102170.00
2019-01-06T12:57:44.144Z,102175.00
2019-01-06T13:00:26.484Z,102174.00
2019-01-06T13:03:00.671Z,102174.00
2019-01-06T13:05:35.839Z,102174.00
2019-01-06T13:08:16.028Z,102174.00
2019-01-06T13:10:47.366Z,102190.00
2019-01-06T13:13:18.668Z,102191.00
2019-01-06T13:15:50.016Z,102187.00
2019-01-06T13:18:23.875Z,102200.00
2019-01-06T13:21:04.610Z,102203.00
2019-01-06T13:23:54.038Z,102205.00
2019-01-06T13:26:43.652Z,102205.00
2019-01-06T13:29:21.799Z,102202.00
2019-01-06T13:32:06.807Z,102204.00
2019-01-06T13:34:38.113Z,102199.00
2019-01-06T13:37:22.587Z,102214.00
2019-01-06T13:39:53.887Z,102202.00
2019-01-06T13:42:40.276Z,102199.00
2019-01-06T13:45:27.474Z,102207.00
2019-01-06T13:48:08.662Z,102202.00
2019-01-06T13:50:54.875Z,102202.00
2019-01-06T13:53:38.056Z,102197.00
2019-01-06T13:56:25.966Z,102199.00
2019-01-06T13:59:13.584Z,102198.00
2019-01-06T14:01:56.702Z,102194.00
2019-01-06T14:04:42.837Z,102198.00
2019-01-06T14:07:14.184Z,102197.00
2019-01-06T14:09:53.834Z,102081.00
2019-01-06T14:12:30.599Z,102197.00
2019-01-06T14:15:08.788Z,102206.00
2019-01-06T14:17:45.865Z,102202.00
2019-01-06T14:20:24.772Z,102202.00
2019-01-06T14:22:56.536Z,102202.00
2019-01-06T14:25:34.658Z,102211.00
2019-01-06T14:28:24.226Z,102215.00
2019-01-06T14:31:13.541Z,102220.00
2019-01-06T14:33:47.662Z,102224.00
2019-01-06T14:36:35.462Z,102222.00
2019-01-06T14:39:24.389Z,102234.00
2019-01-06T14:42:07.518Z,102240.00
2019-01-06T14:44:55.017Z,102229.00
2019-01-06T14:47:26.307Z,102230.00
2019-01-06T14:50:03.492Z,102235.00
2019-01-06T14:52:40.305Z,102191.00
2019-01-06T14:55:11.556Z,102245.00
2019-01-06T14:57:44.358Z,102246.00
2019-01-06T15:00:19.003Z,102239.00
2019-01-06T15:03:04.947Z,102248.00
2019-01-06T15:05:36.194Z,102248.00
2019-01-06T15:08:10.468Z,102248.00
2019-01-06T15:10:45.292Z,102247.00
2019-01-06T15:13:29.939Z,102251.00
2019-01-06T15:16:17.372Z,102249.00
2019-01-06T15:18:48.677Z,102252.00
2019-01-06T15:21:36.201Z,102245.00
2019-01-06T15:24:11.447Z,102255.00
2019-01-06T15:26:58.867Z,102253.00
2019-01-06T15:29:48.004Z,102254.00
2019-01-06T15:32:19.350Z,102258.00
2019-01-06T15:34:54.323Z,102256.00
2019-01-06T15:37:27.289Z,102253.00
2019-01-06T15:40:08.558Z,102266.00
2019-01-06T15:42:39.833Z,102257.00
2019-01-06T15:45:15.695Z,102266.00
2019-01-06T15:47:59.604Z,102266.00
2019-01-06T15:50:43.690Z,102274.00
2019-01-06T15:53:31.831Z,102272.00
2019-01-06T15:56:04.599Z,102278.00
2019-01-06T15:58:49.418Z,102272.00
2019-01-06T16:01:36.406Z,102272.00
2019-01-06T16:06:53.237Z,102276.00
2019-01-06T16:09:40.983Z,102287.00
2019-01-06T16:12:29.052Z,102282.00
2019-01-06T16:15:15.677Z,102285.00
2019-01-06T16:17:47.478Z,102286.00
2019-01-06T16:20:27.451Z,102277.00
2019-01-06T16:22:58.859Z,102277.00
2019-01-06T16:25:32.859Z,102270.00
2019-01-06T16:28:06.697Z,102269.00
2019-01-06T16:30:54.123Z,102255.00
2019-01-06T16:33:25.429Z,102266.00
2019-01-06T16:36:13.189Z,102260.00
2019-01-06T16:38:50.155Z,102265.00
2019-01-06T16:41:38.528Z,102268.00
2019-01-06T16:44:25.005Z,102255.00
2019-01-06T16:47:15.155Z,102261.00
2019-01-06T16:49:50.594Z,102255.00
2019-01-06T16:52:24.498Z,102255.00
2019-01-06T16:55:01.396Z,102264.00
2019-01-06T16:57:36.265Z,102262.00
2019-01-06T17:00:09.870Z,102261.00
2019-01-06T17:02:47.180Z,102267.00
2019-01-06T17:05:24.390Z,102271.00
2019-01-06T17:07:55.745Z,102259.00
2019-01-06T17:10:43.799Z,102252.00
2019-01-06T17:13:32.478Z,102258.00
2019-01-06T17:16:10.836Z,102257.00
2019-01-06T17:18:45.069Z,102252.00
2019-01-06T17:21:31.294Z,102249.00
2019-01-06T17:24:17.306Z,102256.00
2019-01-06T17:26:54.083Z,102266.00
2019-01-06T17:29:34.393Z,102263.00
2019-01-06T17:32:08.502Z,102259.00
2019-01-06T17:34:56.317Z,102268.00
2019-01-06T17:37:38.271Z,102274.00
2019-01-06T17:40:27.245Z,102274.00
2019-01-06T17:42:58.568Z,102278.00
2019-01-06T17:45:38.560Z,102269.00
2019-01-06T17:48:15.853Z,102275.00
2019-01-06T17:50:47.196Z,102268.00
2019-01-06T17:53:18.508Z,102257.00
2019-01-06T17:55:52.413Z,102272.00
2019-01-06T17:58:35.916Z,102279.00
2019-01-06T18:01:07.251Z,102270.00
2019-01-06T18:03:41.249Z,102267.00
2019-01-06T18:06:25.903Z,102271.00
2019-01-06T18:09:00.125Z,102265.00
2019-01-06T18:11:44.837Z,102283.00
2019-01-06T18:14:16.143Z,102267.00
2019-01-06T18:17:03.640Z,102263.00
2019-01-06T18:19:35.851Z,102262.00
2019-01-06T18:22:07.178Z,102257.00
2019-01-06T18:24:50.538Z,102269.00
2019-01-06T18:27:38.026Z,102263.00
2019-01-06T18:30:27.830Z,102268.00
2019-01-06T18:33:05.544Z,102278.00
2019-01-06T18:35:42.613Z,102287.00
2019-01-06T18:38:26.075Z,102279.00
2019-01-06T18:41:13.303Z,102275.00
2019-01-06T18:44:02.823Z,102280.00
2019-01-06T18:46:50.205Z,102282.00
2019-01-06T18:49:21.536Z,102284.00
2019-01-06T18:52:01.889Z,102282.00
2019-01-06T18:54:49.450Z,102276.00
2019-01-06T18:57:37.007Z,102278.00
2019-01-06T19:00:19.164Z,102279.00
2019-01-06T19:02:53.418Z,102281.00
2019-01-06T19:05:39.910Z,102282.00
2019-01-06T19:08:23.263Z,102285.00
2019-01-06T19:11:08.171Z,102272.00
2019-01-06T19:13:56.202Z,102280.00
2019-01-06T19:16:36.325Z,102279.00
2019-01-06T19:19:10.456Z,102278.00
2019-01-06T19:21:58.924Z,102273.00
2019-01-06T19:24:38.884Z,102272.00
2019-01-06T19:27:26.292Z,102266.00
2019-01-06T19:30:09.844Z,102260.00
2019-01-06T19:32:49.659Z,102260.00
2019-01-06T19:35:36.753Z,102264.00
2019-01-06T19:38:17.173Z,102264.00
2019-01-06T19:41:07.832Z,102262.00
2019-01-06T19:43:45.560Z,102262.00
2019-01-06T19:46:19.566Z,102265.00
2019-01-06T19:49:06.958Z,102262.00
2019-01-06T19:51:38.257Z,102258.00
2019-01-06T19:54:15.047Z,102267.00
2019-01-06T19:56:46.360Z,102274.00
2019-01-06T19:59:34.326Z,102273.00
2019-01-06T20:02:20.834Z,102273.00
2019-01-06T20:05:08.278Z,102265.00
2019-01-06T20:07:48.686Z,102262.00
2019-01-06T20:10:19.999Z,102268.00
2019-01-06T20:13:05.863Z,102267.00
2019-01-06T20:15:53.555Z,102257.00
2019-01-06T20:18:40.250Z,102250.00
2019-01-06T20:21:11.944Z,102254.00
2019-01-06T20:23:43.244Z,102249.00
2019-01-06T20:26:26.344Z,102251.00
2019-01-06T20:29:03.267Z,102256.00
2019-01-06T20:31:50.472Z,102255.00
2019-01-06T20:34:28.343Z,102255.00
2019-01-06T20:37:08.428Z,102255.00
2019-01-06T20:39:46.494Z,102261.00
2019-01-06T20:42:28.027Z,102263.00
2019-01-06T20:44:59.334Z,102255.00
2019-01-06T20:47:46.863Z,102266.00
2019-01-06T20:50:34.617Z,102258.00
2019-01-06T20:53:20.768Z,102275.00
2019-01-06T20:55:57.972Z,102266.00
2019-01-06T20:58:29.756Z,102261.00
2019-01-06T21:01:05.218Z,102269.00
2019-01-06T21:03:55.569Z,102275.00
2019-01-06T21:06:29.611Z,102267.00
2019-01-06T21:09:09.651Z,102271.00
2019-01-06T21:11:52.018Z,102273.00
2019-01-06T21:14:28.851Z,102272.00
2019-01-06T21:17:05.751Z,102279.00
2019-01-06T21:19:43.022Z,102273.00
2019-01-06T21:22:14.274Z,102277.00
2019-01-06T21:25:00.464Z,102280.00
2019-01-06T21:27:43.850Z,102275.00
2019-01-06T21:30:31.155Z,102270.00
2019-01-06T21:33:10.596Z,102274.00
2019-01-06T21:35:41.938Z,102272.00
2019-01-06T21:38:13.259Z,102273.00
2019-01-06T21:41:04.945Z,102264.00
2019-01-06T21:43:39.298Z,102275.00
2019-01-06T21:46:24.910Z,102271.00
2019-01-06T21:49:08.139Z,102276.00
2019-01-06T21:51:42.447Z,102281.00
2019-01-06T21:54:22.909Z,102270.00
2019-01-06T21:57:10.264Z,102271.00
2019-01-06T21:59:42.622Z,102280.00
2019-01-06T22:02:17.527Z,102266.00
2019-01-06T22:05:00.849Z,102280.00
2019-01-06T22:07:40.557Z,102275.00
2019-01-06T22:10:11.889Z,102265.00
2019-01-06T22:12:49.312Z,102277.00
2019-01-06T22:15:26.324Z,102266.00
2019-01-06T22:18:07.911Z,102260.00
2019-01-06T22:20:55.266Z,102262.00
2019-01-06T22:23:26.593Z,102248.00
2019-01-06T22:26:12.025Z,102185.00
2019-01-06T22:28:59.631Z,102242.00
2019-01-06T22:31:45.691Z,102239.00
2019-01-06T22:34:21.234Z,102231.00
2019-01-06T22:37:08.751Z,102229.00
2019-01-06T22:39:48.660Z,102226.00
2019-01-06T22:42:19.973Z,102233.00
2019-01-06T22:45:06.245Z,102232.00
2019-01-06T22:47:46.382Z,102221.00
2019-01-06T22:50:20.526Z,102217.00
2019-01-06T22:52:51.841Z,102231.00
2019-01-06T22:55:39.043Z,102239.00
2019-01-06T22:58:19.423Z,102226.00
2019-01-06T23:00:59.823Z,102231.00
2019-01-06T23:03:46.975Z,102230.00
2019-01-06T23:06:21.008Z,102242.00
2019-01-06T23:09:10.466Z,102240.00
2019-01-06T23:11:42.636Z,102230.00
2019-01-06T23:17:13.257Z,102235.00
2019-01-06T23:19:51.846Z,102225.00
2019-01-06T23:22:36.265Z,102226.00
2019-01-06T23:25:20.657Z,102235.00
2019-01-06T23:27:55.717Z,102236.00
2019-01-06T23:30:42.098Z,102233.00
2019-01-06T23:33:34.184Z,102229.00
2019-01-06T23:36:15.273Z,102231.00
2019-01-06T23:38:55.953Z,102224.00
2019-01-06T23:41:27.249Z,102227.00
2019-01-06T23:44:10.602Z,102235.00
2019-01-06T23:46:41.913Z,102232.00
2019-01-06T23:49:22.006Z,102235.00
2019-01-06T23:52:05.289Z,102242.00
2019-01-06T23:54:36.839Z,102238.00
2019-01-06T23:57:08.152Z,102237.00
2019-01-06T23:59:55.602Z,102232.00
